Time;durP1;ratioP1;P1;durP2;ratioP2;P2;SDS_P1;SDS_P2;PMS_P1;PMS_P2;Temp;Humidity;BMP_temperature;BMP_pressure;BME280_temperature;BME280_humidity;BME280_pressure;Samples;Min_cycle;Max_cycle;Signal;HPM_P1;HPM_P2
2021/07/18 00:03:33;;;;;;;8.57;4.00;;;;;;;25.26;50.14;102207.94;3556803;40;20037;-81
2021/07/18 00:06:25;;;;;;;9.45;3.70;;;;;;;25.23;47.50;102208.97;3608723;23;20041;-82
2021/07/18 00:08:55;;;;;;;9.45;3.55;;;;;;;25.16;49.48;102206.78;3683932;23;20033;-80
2021/07/18 00:17:38;;;;;;;7.38;3.65;;;;;;;24.88;50.06;102202.16;3702326;22;20039;-81
2021/07/18 00:20:15;;;;;;;7.95;3.60;;;;;;;24.87;49.00;102206.66;3601053;39;20043;-82
2021/07/18 00:25:13;;;;;;;10.13;4.00;;;;;;;24.75;49.74;102196.69;3585768;39;20055;-82
2021/07/18 00:30:37;;;;;;;7.45;2.28;;;;;;;24.55;52.07;102190.69;3569802;39;20048;-82
2021/07/18 00:36:03;;;;;;;8.07;3.42;;;;;;;24.57;51.07;102203.94;3694394;22;20039;31
2021/07/18 00:45:05;;;;;;;7.90;2.47;;;;;;;24.35;50.51;102204.31;1215916;23;21479;-80
2021/07/18 01:00:22;;;;;;;10.85;3.45;;;;;;;24.00;51.65;102199.13;1291794;22;20184;-80
2021/07/18 01:05:54;;;;;;;7.97;2.92;;;;;;;23.88;54.34;102194.47;3642531;22;20036;-80
2021/07/18 01:08:28;;;;;;;9.35;2.45;;;;;;;23.85;53.14;102199.97;3587745;39;21123;-81
2021/07/18 01:11:20;;;;;;;8.13;2.75;;;;;;;23.81;51.46;102199.28;3648322;22;20044;-79
2021/07/18 01:13:50;;;;;;;9.20;3.50;;;;;;;23.77;55.03;102202.19;3666038;22;20048;-80
2021/07/18 01:16:17;;;;;;;7.60;2.70;;;;;;;23.63;54.49;102178.06;3697178;23;20036;-81
2021/07/18 01:18:48;;;;;;;9.75;3.08;;;;;;;23.68;55.43;102197.38;3612334;39;20024;-81
2021/07/18 01:21:24;;;;;;;8.75;3.13;;;;;;;23.68;53.64;102197.38;3747053;22;20079;-81
2021/07/18 01:23:58;;;;;;;10.67;3.50;;;;;;;23.66;54.13;102194.75;3635642;22;20066;-80
2021/07/18 01:29:09;;;;;;;9.23;3.10;;;;;;;23.41;53.96;102157.84;1218999;22;20181;-80
2021/07/18 01:34:52;;;;;;;9.00;2.90;;;;;;;23.52;53.43;102190.16;3698348;22;20036;-81
2021/07/18 01:40:20;;;;;;;11.40;4.22;;;;;;;23.43;55.75;102177.31;3635890;22;20908;-81
2021/07/18 01:54:46;;;;;;;10.07;3.80;;;;;;;23.31;54.02;102173.47;3822815;22;20946;-81
2021/07/18 01:57:47;;;;;;;10.32;3.13;;;;;;;23.28;53.53;102164.81;3727942;22;20110;-81
2021/07/18 02:12:48;;;;;;;8.45;3.20;;;;;;;23.07;53.47;102164.13;1221118;22;21379;-80
2021/07/18 02:15:25;;;;;;;9.63;3.30;;;;;;;23.03;54.47;102163.41;3721255;23;20895;-80
2021/07/18 02:24:14;;;;;;;9.25;2.70;;;;;;;22.92;52.85;102149.78;3627368;22;20364;-81
2021/07/18 02:29:45;;;;;;;9.15;3.20;;;;;;;22.71;54.13;102137.56;3697042;23;20037;-80
2021/07/18 02:44:14;;;;;;;9.55;2.80;;;;;;;22.60;56.54;102135.41;3650074;23;20041;-81
2021/07/18 02:46:44;;;;;;;8.93;3.03;;;;;;;22.57;55.78;102137.38;3772688;22;20080;-80
2021/07/18 02:52:15;;;;;;;9.15;2.35;;;;;;;22.51;55.87;102123.44;3802266;22;20048;-80
2021/07/18 03:00:40;;;;;;;5.85;1.80;;;;;;;22.26;55.38;102094.53;3774340;22;20033;-80
2021/07/18 03:03:10;;;;;;;4.68;2.22;;;;;;;22.36;56.47;102115.34;3802595;22;20032;-81
2021/07/18 03:06:08;;;;;;;6.97;2.22;;;;;;;22.38;55.39;102124.97;3703073;23;20017;-80
2021/07/18 03:09:00;;;;;;;5.03;1.83;;;;;;;22.36;54.17;102128.66;3787906;22;21175;-80
2021/07/18 03:11:35;;;;;;;8.05;2.13;;;;;;;22.32;55.09;102127.09;3656020;23;20040;-81
2021/07/18 03:20:29;;;;;;;4.82;1.88;;;;;;;22.20;54.72;102118.78;3766334;23;20041;-80
2021/07/18 03:26:01;;;;;;;7.05;1.67;;;;;;;22.09;56.95;102114.84;3681737;23;20949;-81
2021/07/18 03:28:52;;;;;;;8.27;2.95;;;;;;;22.11;55.27;102121.03;1224489;22;21483;-80
2021/07/18 03:31:27;;;;;;;6.60;1.50;;;;;;;22.07;56.74;102127.38;3724678;22;20398;-79
2021/07/18 03:34:18;;;;;;;4.20;1.52;;;;;;;22.04;55.13;102123.06;3784559;22;20329;-81
2021/07/18 03:36:55;;;;;;;5.82;1.90;;;;;;;22.02;56.24;102122.28;3737633;22;20068;-80
2021/07/18 03:39:39;;;;;;;6.80;2.03;;;;;;;21.99;56.39;102117.97;3859785;22;20040;-80
2021/07/18 03:45:15;;;;;;;9.23;2.42;;;;;;;21.95;57.60;102124.38;3700028;23;20037;31
2021/07/18 03:53:59;;;;;;;7.75;2.70;;;;;;;21.87;57.46;102125.69;3729716;23;20073;-80
2021/07/18 03:59:31;;;;;;;9.30;2.90;;;;;;;21.83;57.34;102121.44;3755451;22;20040;-81
2021/07/18 04:05:07;;;;;;;8.98;2.55;;;;;;;21.77;57.63;102119.94;3730937;22;20040;31
2021/07/18 04:16:54;;;;;;;6.70;1.55;;;;;;;21.45;58.70;102090.41;3732346;23;20049;-80
2021/07/18 04:25:06;;;;;;;8.73;2.55;;;;;;;21.55;58.96;102113.91;3748495;22;20677;-80
2021/07/18 04:33:57;;;;;;;9.32;2.90;;;;;;;21.49;59.06;102121.22;1183977;23;20182;-79
2021/07/18 04:36:55;;;;;;;8.15;2.28;;;;;;;21.48;58.59;102124.78;3788314;22;20075;-82
2021/07/18 04:39:47;;;;;;;7.00;1.90;;;;;;;21.46;57.22;102131.97;1212512;23;20180;-80
2021/07/18 04:45:26;;;;;;;;;;;;;;;21.44;55.92;102128.53;3801872;23;20041;-80
2021/07/18 04:47:56;;;;;;;6.97;1.50;;;;;;;21.41;60.16;102126.00;3553351;40;20207;-81
2021/07/18 04:53:41;;;;;;;5.25;1.48;;;;;;;21.40;57.52;102132.25;3659625;23;20047;-81
2021/07/18 04:56:09;;;;;;;4.13;1.30;;;;;;;21.36;60.58;102128.00;3737922;23;20040;-81
2021/07/18 04:58:39;;;;;;;4.78;1.35;;;;;;;21.32;59.95;102123.75;3735911;22;20032;-80
2021/07/18 05:01:31;;;;;;;3.80;1.48;;;;;;;21.38;57.90;102134.13;3786581;22;20347;-80
2021/07/18 05:16:48;;;;;;;4.07;0.85;;;;;;;21.38;58.32;102139.44;1221859;22;21381;-80
2021/07/18 05:25:49;;;;;;;6.53;1.83;;;;;;;21.40;58.90;102134.06;3801306;23;20029;-81
2021/07/18 05:34:50;;;;;;;3.58;1.00;;;;;;;21.44;58.41;102139.19;1186587;23;20181;-80
2021/07/18 05:53:20;;;;;;;2.13;0.75;;;;;;;21.53;58.73;102158.28;1214838;23;21444;-80
2021/07/18 05:55:50;;;;;;;5.40;1.08;;;;;;;21.43;60.80;102147.19;3744782;22;20033;-80
2021/07/18 05:58:30;;;;;;;1.90;0.80;;;;;;;21.54;60.96;102160.00;3776134;22;20036;-81
2021/07/18 06:01:00;;;;;;;2.03;0.90;;;;;;;21.39;61.38;102135.88;3739421;22;20128;-79
2021/07/18 06:06:54;;;;;;;1.65;0.70;;;;;;;21.63;59.30;102165.75;3815870;22;20102;31
2021/07/18 06:09:21;;;;;;;1.40;0.70;;;;;;;21.46;62.89;102139.94;3837245;22;20044;-80
2021/07/18 06:11:56;;;;;;;2.25;0.70;;;;;;;21.66;60.30;102172.75;3815356;22;20047;31
2021/07/18 06:14:49;;;;;;;2.80;1.08;;;;;;;21.69;59.30;102165.47;1221949;23;21428;-80
2021/07/18 06:20:42;;;;;;;2.45;0.75;;;;;;;21.74;59.61;102165.25;3767417;22;20889;-80
2021/07/18 06:26:06;;;;;;;2.50;0.90;;;;;;;21.77;61.31;102168.66;3633453;22;20044;-80
2021/07/18 06:41:21;;;;;;;1.98;0.68;;;;;;;21.99;59.49;102167.63;1214751;23;21611;-79
2021/07/18 06:43:56;;;;;;;2.78;0.80;;;;;;;22.01;60.61;102163.97;3840784;22;20032;-82
2021/07/18 06:46:38;;;;;;;3.25;1.05;;;;;;;22.06;61.00;102168.22;1218132;22;20224;-81
2021/07/18 06:58:27;;;;;;;2.92;0.85;;;;;;;22.25;61.00;102163.75;3679870;22;20044;-81
2021/07/18 07:01:18;;;;;;;2.35;0.60;;;;;;;22.40;59.25;102165.69;1223390;22;21368;-81
2021/07/18 07:15:09;;;;;;;3.63;0.98;;;;;;;22.90;58.21;102170.31;3660834;22;20048;-82
2021/07/18 07:21:09;;;;;;;2.47;1.00;;;;;;;23.04;59.01;102175.78;3649750;23;20029;-81
2021/07/18 07:23:37;;;;;;;3.45;0.93;;;;;;;23.07;58.85;102174.78;3566683;40;20060;-81
2021/07/18 07:26:08;;;;;;;1.20;0.65;;;;;;;23.16;58.41;102176.09;3580504;40;20037;-81
2021/07/18 07:28:43;;;;;;;2.60;1.02;;;;;;;23.17;58.44;102175.16;3554559;39;20059;-81
2021/07/18 07:31:11;;;;;;;2.10;0.80;;;;;;;23.23;58.71;102180.19;3576008;40;20047;-81
2021/07/18 07:36:46;;;;;;;3.95;1.10;;;;;;;23.35;57.32;102184.84;3624388;22;20055;-82
2021/07/18 07:39:45;;;;;;;2.80;0.90;;;;;;;23.38;57.67;102182.03;3632271;22;20051;-82
2021/07/18 07:42:12;;;;;;;1.98;0.93;;;;;;;23.36;58.80;102175.03;3579546;40;20073;-82
2021/07/18 07:47:29;;;;;;;2.78;1.10;;;;;;;23.45;58.49;102180.75;3581689;40;20050;-83
2021/07/18 07:49:59;;;;;;;3.38;1.10;;;;;;;23.44;58.31;102173.69;3649152;23;20069;-82
2021/07/18 07:58:37;;;;;;;2.58;1.17;;;;;;;23.59;58.32;102165.81;3609149;39;20553;-82
2021/07/18 08:04:04;;;;;;;3.65;1.00;;;;;;;23.62;57.77;102165.63;3600138;39;20082;-82
2021/07/18 08:06:37;;;;;;;2.13;1.05;;;;;;;23.73;57.89;102173.97;3600322;39;20511;-82
2021/07/18 08:09:05;;;;;;;3.72;1.00;;;;;;;23.72;57.72;102167.78;3556780;40;20088;-82
2021/07/18 08:14:44;;;;;;;2.97;1.52;;;;;;;23.90;56.48;102171.22;3698680;22;21120;-82
2021/07/18 08:17:36;;;;;;;3.92;1.42;;;;;;;23.94;55.79;102161.25;1214956;22;21374;-82
2021/07/18 08:20:29;;;;;;;3.13;1.20;;;;;;;23.98;55.99;102169.00;1220976;22;21908;-83
2021/07/18 08:29:09;;;;;;;2.08;0.85;;;;;;;24.12;55.63;102164.69;1214292;23;21339;-82
2021/07/18 08:35:09;;;;;;;2.08;0.90;;;;;;;24.16;56.39;102163.56;1187051;22;20169;-81
2021/07/18 08:38:01;;;;;;;1.85;0.90;;;;;;;24.21;56.20;102162.34;1218190;22;21492;-82
2021/07/18 08:49:56;;;;;;;3.10;1.30;;;;;;;24.36;55.38;102155.31;1218186;22;21399;-82
2021/07/18 09:02:05;;;;;;;3.00;1.10;;;;;;;24.50;54.95;102144.69;1207124;23;21494;-83
2021/07/18 09:39:20;;;;;;;1.65;0.80;;;;;;;26.07;52.58;102120.75;1221449;22;21491;-83
2021/07/18 09:51:10;;;;;;;;;;;;;;;27.71;50.65;102119.34;3656655;23;20028;-85
2021/07/18 09:53:43;;;;;;;1.77;0.90;;;;;;;28.01;49.19;102124.31;3582334;39;20317;-84
2021/07/18 09:59:21;;;;;;;6.68;1.63;;;;;;;28.77;47.54;102120.38;3741967;22;20050;-85
2021/07/18 10:05:13;;;;;;;2.40;1.27;;;;;;;29.57;46.54;102128.47;3708299;22;20090;-85
2021/07/18 10:14:24;;;;;;;1.80;1.10;;;;;;;30.87;44.81;102120.31;3703708;22;20813;-86
2021/07/18 10:16:56;;;;;;;2.63;1.10;;;;;;;31.13;42.88;102113.50;3601985;39;20043;-85
2021/07/18 10:25:29;;;;;;;3.95;1.17;;;;;;;32.38;42.29;102120.25;3617095;22;20141;-85
2021/07/18 10:27:59;;;;;;;3.63;1.30;;;;;;;32.63;39.78;102107.16;3584422;40;20103;-86
2021/07/18 10:30:31;;;;;;;2.35;1.10;;;;;;;33.02;38.92;102110.66;3583308;40;20032;-85
2021/07/18 10:33:00;;;;;;;4.25;1.73;;;;;;;33.27;37.47;102107.28;3521690;40;20451;-85
2021/07/18 10:35:30;;;;;;;3.72;1.15;;;;;;;33.65;37.35;102102.66;3513337;40;20047;-85
2021/07/18 10:38:22;;;;;;;1.90;1.00;;;;;;;34.16;39.29;102103.91;3544672;40;20061;-85
2021/07/18 10:40:54;;;;;;;1.92;1.15;;;;;;;34.45;37.01;102100.97;3588642;40;20064;-85
2021/07/18 10:43:45;;;;;;;2.88;1.17;;;;;;;34.88;37.81;102093.81;3562426;40;20116;-84
2021/07/18 10:46:46;;;;;;;3.03;1.23;;;;;;;35.29;37.21;102103.06;3555175;40;20093;-86
2021/07/18 10:49:16;;;;;;;2.17;1.17;;;;;;;35.54;33.88;102100.47;3580134;40;20879;-86
2021/07/18 10:51:50;;;;;;;2.90;1.10;;;;;;;35.92;33.85;102098.16;3570951;40;21167;-86
2021/07/18 10:54:23;;;;;;;2.13;1.23;;;;;;;36.22;33.43;102092.09;3576468;40;20363;-86
2021/07/18 10:56:52;;;;;;;1.92;1.17;;;;;;;36.45;30.81;102096.88;3567074;40;20077;-86
2021/07/18 10:59:35;;;;;;;3.45;1.25;;;;;;;36.99;33.29;102097.16;3574063;40;20056;-86
2021/07/18 11:02:07;;;;;;;3.35;1.20;;;;;;;37.26;32.23;102082.22;3571674;40;20056;-86
2021/07/18 11:04:45;;;;;;;2.55;1.20;;;;;;;37.67;32.11;102084.81;3568059;40;20053;-86
2021/07/18 11:07:28;;;;;;;2.35;1.55;;;;;;;38.06;32.43;102079.25;3563025;40;20052;-86
2021/07/18 11:10:08;;;;;;;3.80;1.25;;;;;;;38.22;30.64;102073.66;3557236;40;20060;-86
2021/07/18 11:12:38;;;;;;;2.95;1.23;;;;;;;38.52;28.91;102057.38;3573013;40;20049;-85
2021/07/18 11:15:21;;;;;;;2.72;1.30;;;;;;;39.16;30.89;102077.66;3580318;40;20033;-86
2021/07/18 11:18:07;;;;;;;3.58;1.42;;;;;;;39.52;30.55;102076.00;3579415;40;20119;-86
2021/07/18 11:20:47;;;;;;;2.92;1.67;;;;;;;39.83;28.28;102073.00;3556072;40;20590;-86
2021/07/18 11:23:34;;;;;;;2.30;1.30;;;;;;;40.15;29.15;102071.69;3541231;40;20056;-86
2021/07/18 11:26:02;;;;;;;2.47;1.30;;;;;;;40.18;25.96;102072.09;3521343;40;20043;-86
2021/07/18 11:28:35;;;;;;;3.83;1.40;;;;;;;40.45;26.58;102066.84;3556425;40;20067;-86
2021/07/18 11:31:13;;;;;;;2.80;1.42;;;;;;;40.93;27.70;102070.59;3548786;40;20085;-86
2021/07/18 11:33:44;;;;;;;2.05;1.30;;;;;;;41.15;26.70;102062.25;3515823;40;20536;-87
2021/07/18 11:36:23;;;;;;;2.08;1.08;;;;;;;41.52;26.77;102068.28;3533115;40;20507;-86
2021/07/18 11:38:54;;;;;;;3.25;1.50;;;;;;;41.77;26.45;102066.72;3525272;40;20054;-86
2021/07/18 11:41:28;;;;;;;2.38;1.35;;;;;;;42.05;25.35;102054.69;3538903;40;20075;-86
2021/07/18 11:44:01;;;;;;;2.70;1.30;;;;;;;42.19;24.60;102054.53;3506112;40;20092;-86
2021/07/18 11:46:42;;;;;;;2.80;1.27;;;;;;;42.44;25.34;102068.44;3524009;40;20452;-86
2021/07/18 11:49:11;;;;;;;3.20;1.40;;;;;;;42.42;23.64;102061.47;3522561;40;20086;-85
2021/07/18 11:51:47;;;;;;;2.33;1.17;;;;;;;42.70;25.25;102061.22;3496743;40;20188;-86
2021/07/18 11:54:16;;;;;;;3.42;1.35;;;;;;;42.77;24.08;102062.03;3502354;40;20051;-86
2021/07/18 11:56:45;;;;;;;2.40;1.30;;;;;;;43.00;23.09;102059.66;3480409;40;20063;-86
2021/07/18 11:59:15;;;;;;;2.75;1.20;;;;;;;43.20;24.51;102061.50;3529941;40;20058;-86
2021/07/18 12:01:45;;;;;;;2.70;1.23;;;;;;;43.42;23.32;102057.38;3541016;40;20038;-86
2021/07/18 12:04:19;;;;;;;2.33;1.20;;;;;;;43.47;22.37;102060.31;3536703;40;20066;-86
2021/07/18 12:06:47;;;;;;;3.95;1.52;;;;;;;43.57;22.54;102059.00;3549382;40;20111;-85
2021/07/18 12:09:42;;;;;;;2.10;1.20;;;;;;;43.92;23.91;102059.41;3518093;40;20095;-86
2021/07/18 12:12:12;;;;;;;3.03;1.50;;;;;;;43.79;23.12;102057.56;3554471;40;20991;-85
2021/07/18 12:14:41;;;;;;;3.05;1.10;;;;;;;43.71;22.07;102055.09;3550224;40;20066;-85
2021/07/18 12:17:13;;;;;;;2.85;1.27;;;;;;;43.77;23.25;102052.28;3535278;40;20073;-85
2021/07/18 12:19:41;;;;;;;2.38;1.25;;;;;;;43.73;22.21;102040.03;3563820;40;20547;-86
2021/07/18 12:22:19;;;;;;;3.03;1.80;;;;;;;44.00;23.40;102050.84;3523857;40;20050;-86
2021/07/18 12:24:50;;;;;;;1.38;1.08;;;;;;;44.15;22.23;102045.84;3540130;40;20080;-86
2021/07/18 12:27:20;;;;;;;1.85;1.30;;;;;;;44.31;21.78;102052.75;3556548;40;20148;-84
2021/07/18 12:29:55;;;;;;;1.83;1.23;;;;;;;44.59;22.41;102046.72;3606709;22;20518;-86
2021/07/18 12:35:31;;;;;;;2.70;1.17;;;;;;;44.36;21.05;102022.63;3774306;22;20044;-87
2021/07/18 12:41:00;;;;;;;2.80;1.30;;;;;;;44.54;22.05;102039.13;3609718;39;20596;-88
2021/07/18 12:46:35;;;;;;;2.00;1.33;;;;;;;44.87;21.77;102034.34;3636332;22;20102;-87
2021/07/18 12:52:46;;;;;;;2.92;1.40;;;;;;;45.29;22.15;102029.78;3635102;22;20479;-86
2021/07/18 13:01:38;;;;;;;2.78;1.45;;;;;;;45.40;21.21;102033.69;3585337;23;20031;-86
2021/07/18 13:04:32;;;;;;;2.10;1.30;;;;;;;45.32;22.16;102028.44;3599619;23;20059;-86
2021/07/18 13:07:09;;;;;;;3.47;1.50;;;;;;;45.06;21.60;102015.88;3560095;40;20041;-86
2021/07/18 13:09:38;;;;;;;2.33;1.40;;;;;;;44.73;21.26;102028.16;3548671;40;20055;-86
2021/07/18 13:12:06;;;;;;;2.85;1.40;;;;;;;44.49;21.34;102016.94;3534350;40;20051;-86
2021/07/18 13:14:37;;;;;;;3.08;1.27;;;;;;;44.58;21.79;102024.91;3531393;40;20035;-86
2021/07/18 13:20:03;;;;;;;2.15;1.38;;;;;;;44.86;21.59;102027.97;3598925;40;20047;-86
2021/07/18 13:22:38;;;;;;;2.55;1.38;;;;;;;45.06;21.14;102026.91;3624156;23;20048;-85
2021/07/18 13:25:48;;;;;;;1.92;1.42;;;;;;;45.31;21.66;102022.09;3579267;40;20048;-85
2021/07/18 13:28:26;;;;;;;2.67;1.35;;;;;;;45.49;20.87;102016.56;3528237;40;20490;-86
2021/07/18 13:31:01;;;;;;;3.55;1.55;;;;;;;45.67;20.36;102023.06;3557633;40;20054;-86
2021/07/18 13:34:02;;;;;;;2.65;1.45;;;;;;;45.84;21.10;102018.56;3707226;23;20147;-86
2021/07/18 13:36:56;;;;;;;2.45;1.40;;;;;;;45.92;21.15;102018.22;3586632;23;20408;-85
2021/07/18 13:42:37;;;;;;;3.03;1.80;;;;;;;46.14;21.06;102017.63;3654146;22;20053;-86
2021/07/18 13:45:11;;;;;;;2.42;1.30;;;;;;;46.25;20.36;102016.81;3626164;23;20042;-86
2021/07/18 13:47:45;;;;;;;1.88;1.30;;;;;;;46.42;20.17;102009.44;3654460;23;20455;-86
2021/07/18 13:59:47;;;;;;;2.03;1.23;;;;;;;46.73;20.42;101997.16;3665996;23;20745;-86
2021/07/18 14:02:46;;;;;;;2.45;1.25;;;;;;;46.77;19.92;102000.28;3683467;23;20037;-86
2021/07/18 14:11:39;;;;;;;2.10;1.33;;;;;;;46.81;20.13;101995.94;3616789;23;20586;-86
2021/07/18 14:16:56;;;;;;;3.55;1.52;;;;;;;46.77;18.87;102001.09;3718479;22;20065;-85
2021/07/18 14:22:24;;;;;;;2.90;1.42;;;;;;;46.79;19.33;101998.97;3670211;22;20641;31
2021/07/18 14:24:52;;;;;;;2.13;1.45;;;;;;;46.67;18.55;101995.38;3576034;40;20074;-86
2021/07/18 14:30:14;;;;;;;2.97;1.50;;;;;;;46.67;18.81;101989.00;3537698;40;20063;-86
2021/07/18 14:32:45;;;;;;;2.85;1.45;;;;;;;46.73;19.43;101993.53;3542420;40;20053;-86
2021/07/18 14:35:13;;;;;;;2.38;1.50;;;;;;;46.62;18.97;101980.59;3519457;40;20075;-86
2021/07/18 14:37:41;;;;;;;3.10;1.52;;;;;;;46.56;18.32;101972.22;3517549;40;20036;-86
2021/07/18 14:42:42;;;;;;;2.88;1.30;;;;;;;46.61;19.35;101988.06;3561833;40;20043;-86
2021/07/18 14:45:12;;;;;;;2.10;1.30;;;;;;;46.65;18.92;101985.66;3543046;40;20094;-86
2021/07/18 14:50:32;;;;;;;4.68;1.45;;;;;;;46.68;18.59;101993.44;3570499;40;20093;-84
2021/07/18 14:53:05;;;;;;;1.88;1.27;;;;;;;46.76;18.72;101987.53;3558716;40;20044;-83
2021/07/18 14:55:35;;;;;;;2.72;1.42;;;;;;;46.83;18.29;101985.47;3575772;40;20080;-84
2021/07/18 14:58:03;;;;;;;4.18;1.92;;;;;;;46.83;18.09;101988.22;3569759;40;21445;-84
2021/07/18 15:00:32;;;;;;;2.30;1.40;;;;;;;46.84;18.52;101981.59;3556599;40;20123;-84
2021/07/18 15:03:01;;;;;;;3.03;1.58;;;;;;;46.74;18.75;101979.50;3575193;40;20069;-84
2021/07/18 15:05:29;;;;;;;1.65;1.30;;;;;;;46.61;19.42;101968.72;3553605;40;20061;-84
2021/07/18 15:07:56;;;;;;;2.20;1.20;;;;;;;46.63;18.89;101976.75;3569135;40;20073;-83
2021/07/18 15:10:24;;;;;;;2.72;1.50;;;;;;;46.52;18.87;101973.78;3561370;40;20431;-83
2021/07/18 15:13:17;;;;;;;2.63;1.30;;;;;;;46.54;19.38;101985.44;3572476;40;20053;-84
2021/07/18 15:15:44;;;;;;;1.80;1.10;;;;;;;46.25;18.58;101978.13;3554633;40;20339;-83
2021/07/18 15:18:12;;;;;;;3.72;1.42;;;;;;;46.13;18.75;101974.50;3560690;40;20153;-84
2021/07/18 15:20:39;;;;;;;3.40;1.45;;;;;;;45.95;19.07;101968.03;3547818;40;25078;-83
2021/07/18 15:23:07;;;;;;;2.53;1.20;;;;;;;45.77;18.79;101957.09;3564016;40;20050;-83
2021/07/18 15:25:37;;;;;;;2.17;1.23;;;;;;;45.53;19.35;101968.09;3558178;40;20634;-83
2021/07/18 15:28:04;;;;;;;1.83;1.20;;;;;;;45.01;19.76;101948.50;3564788;40;20093;-83
2021/07/18 15:30:31;;;;;;;4.57;1.52;;;;;;;44.74;20.48;101952.66;3559315;40;20411;-83
2021/07/18 15:32:58;;;;;;;1.77;1.23;;;;;;;44.46;20.08;101959.56;3568606;40;20116;-83
2021/07/18 15:35:29;;;;;;;2.42;1.30;;;;;;;44.10;20.81;101941.06;3557510;40;20073;-83
2021/07/18 15:37:56;;;;;;;2.63;1.48;;;;;;;43.95;21.18;101944.19;3555482;40;20082;-83
2021/07/18 15:40:25;;;;;;;2.03;1.20;;;;;;;43.95;21.47;101949.72;3549959;40;20097;-84
2021/07/18 15:42:53;;;;;;;2.00;1.20;;;;;;;43.84;21.45;101947.69;3550175;40;20733;-83
2021/07/18 15:45:23;;;;;;;2.88;1.20;;;;;;;43.89;21.12;101945.09;3548488;40;20064;-83
2021/07/18 15:47:50;;;;;;;3.70;1.30;;;;;;;43.72;21.28;101927.44;3546286;40;20113;-83
2021/07/18 15:50:23;;;;;;;2.28;1.20;;;;;;;43.84;21.45;101938.59;3546975;40;20474;-83
2021/07/18 15:52:50;;;;;;;3.13;1.35;;;;;;;43.58;21.18;101932.22;3568346;40;20120;-83
2021/07/18 15:55:19;;;;;;;1.95;1.17;;;;;;;43.43;21.53;101935.28;3571446;40;20389;-83
2021/07/18 15:57:47;;;;;;;3.65;1.77;;;;;;;43.29;21.48;101928.16;3555951;40;20393;-83
2021/07/18 16:00:16;;;;;;;2.53;1.45;;;;;;;43.11;21.86;101908.88;3557714;40;20097;-82
2021/07/18 16:02:43;;;;;;;2.97;1.65;;;;;;;43.07;21.63;101919.44;3556466;40;20060;-83
2021/07/18 16:05:13;;;;;;;3.50;1.77;;;;;;;42.95;21.52;101922.03;3569154;40;20227;-83
2021/07/18 16:07:43;;;;;;;3.38;1.83;;;;;;;42.74;21.94;101911.38;3566209;40;20073;-82
2021/07/18 16:10:13;;;;;;;3.42;1.63;;;;;;;42.68;22.25;101907.59;3554172;40;20060;-83
2021/07/18 16:12:43;;;;;;;4.68;1.90;;;;;;;42.67;22.70;101913.31;3565614;40;20455;-83
2021/07/18 16:15:16;;;;;;;4.32;2.38;;;;;;;42.62;22.03;101911.22;3559862;40;20315;-83
2021/07/18 16:17:43;;;;;;;4.80;2.67;;;;;;;42.44;21.86;101900.91;3562823;40;20048;-83
2021/07/18 16:20:13;;;;;;;5.55;3.13;;;;;;;42.41;22.25;101906.00;3563459;40;20053;-83
2021/07/18 16:22:41;;;;;;;4.43;2.58;;;;;;;42.35;22.35;101899.47;3554367;40;20065;-83
2021/07/18 16:25:10;;;;;;;4.05;1.73;;;;;;;42.33;22.13;101898.84;3564494;40;20086;-83
2021/07/18 16:27:37;;;;;;;4.25;1.38;;;;;;;42.22;21.89;101894.00;3566272;40;20084;-83
2021/07/18 16:30:08;;;;;;;1.83;1.00;;;;;;;42.10;22.54;101903.94;3570711;40;20061;-83
2021/07/18 16:32:36;;;;;;;1.60;1.02;;;;;;;41.84;22.61;101902.94;3573824;40;20061;-83
2021/07/18 16:35:04;;;;;;;2.28;1.23;;;;;;;41.67;22.89;101894.28;3565030;40;20048;-83
2021/07/18 16:37:31;;;;;;;2.13;1.10;;;;;;;41.51;22.70;101885.63;3574597;40;20091;-83
2021/07/18 16:40:00;;;;;;;3.33;1.30;;;;;;;41.56;23.09;101888.56;3559495;40;20053;-82
2021/07/18 16:42:28;;;;;;;2.90;1.10;;;;;;;41.56;22.90;101894.06;3566274;40;20059;-83
2021/07/18 16:45:01;;;;;;;1.92;1.02;;;;;;;41.63;23.17;101889.44;3556175;40;20068;-83
2021/07/18 16:47:28;;;;;;;2.25;1.27;;;;;;;41.52;22.59;101876.34;3576359;40;20064;-82
2021/07/18 16:49:56;;;;;;;2.97;1.42;;;;;;;41.36;23.02;101878.44;3565463;40;20103;-83
2021/07/18 16:52:24;;;;;;;2.38;1.25;;;;;;;41.24;22.79;101885.59;3565079;40;20057;-83
2021/07/18 16:54:55;;;;;;;2.90;1.50;;;;;;;41.06;22.82;101874.38;3565506;40;20060;-83
2021/07/18 16:57:22;;;;;;;3.47;1.30;;;;;;;40.74;22.92;101879.53;3571889;40;20093;-82
2021/07/18 16:59:49;;;;;;;2.95;1.27;;;;;;;40.47;23.93;101873.94;3574476;40;20064;-83
2021/07/18 17:02:16;;;;;;;3.35;1.25;;;;;;;40.29;23.73;101870.91;3581934;40;20058;-83
2021/07/18 17:04:43;;;;;;;1.95;1.05;;;;;;;40.19;23.81;101876.75;3562417;40;20079;-83
2021/07/18 17:07:20;;;;;;;2.28;0.98;;;;;;;40.19;24.12;101873.16;3567291;40;20091;-83
2021/07/18 17:09:49;;;;;;;1.50;1.00;;;;;;;40.00;24.21;101868.38;3560023;40;20414;-82
2021/07/18 17:12:21;;;;;;;2.60;1.05;;;;;;;39.67;24.29;101860.81;3573489;40;20106;-83
2021/07/18 17:14:49;;;;;;;1.77;1.10;;;;;;;39.49;24.65;101874.97;3566519;40;20504;-83
2021/07/18 17:17:16;;;;;;;2.10;1.08;;;;;;;39.27;24.54;101871.38;3568488;40;20061;-82
2021/07/18 17:19:44;;;;;;;2.25;1.00;;;;;;;39.05;24.87;101866.94;3576988;40;20049;-83
2021/07/18 17:22:11;;;;;;;4.30;1.38;;;;;;;38.85;25.32;101862.13;3579274;40;20068;-83
2021/07/18 17:24:41;;;;;;;1.45;1.00;;;;;;;38.82;25.61;101867.94;3578455;40;20135;-83
2021/07/18 17:27:10;;;;;;;2.50;1.00;;;;;;;38.70;25.52;101863.16;3567797;40;20061;-82
2021/07/18 17:29:38;;;;;;;2.55;1.13;;;;;;;38.50;25.77;101857.47;3565587;40;20064;-83
2021/07/18 17:32:06;;;;;;;1.67;1.00;;;;;;;38.57;25.67;101863.84;3570606;40;20149;-83
2021/07/18 17:34:36;;;;;;;1.88;0.98;;;;;;;38.50;25.96;101873.84;3566723;40;20095;-83
2021/07/18 17:37:06;;;;;;;4.00;1.27;;;;;;;38.47;25.83;101861.41;3554877;40;20458;-82
2021/07/18 17:39:33;;;;;;;2.30;1.10;;;;;;;38.29;25.75;101845.44;3576463;40;20058;-83
2021/07/18 17:42:08;;;;;;;2.03;1.17;;;;;;;38.22;25.58;101860.00;3557834;40;20146;-83
2021/07/18 17:44:37;;;;;;;4.70;1.08;;;;;;;37.91;26.29;101848.22;3567182;40;20800;-82
2021/07/18 17:47:04;;;;;;;3.35;1.00;;;;;;;37.72;26.53;101867.84;3579902;40;20523;-82
2021/07/18 17:49:31;;;;;;;1.35;1.00;;;;;;;37.47;26.54;101845.44;3578626;40;20075;-82
2021/07/18 17:52:02;;;;;;;1.95;0.90;;;;;;;37.54;26.66;101856.44;3571344;40;20419;-82
2021/07/18 17:54:36;;;;;;;2.60;0.90;;;;;;;37.55;26.31;101858.97;3548717;40;20061;-82
2021/07/18 17:57:04;;;;;;;3.63;1.13;;;;;;;37.42;26.73;101858.75;3560504;40;20817;-84
2021/07/18 17:59:30;;;;;;;2.42;0.90;;;;;;;37.23;27.08;101841.00;3559846;40;20109;-82
2021/07/18 18:01:57;;;;;;;2.20;0.95;;;;;;;37.20;27.06;101862.28;3563965;40;20049;-82
2021/07/18 18:04:24;;;;;;;2.08;1.00;;;;;;;37.07;27.30;101849.31;3568228;40;20061;-82
2021/07/18 18:06:52;;;;;;;3.40;1.10;;;;;;;37.03;27.65;101856.13;3579990;40;20113;-82
2021/07/18 18:09:23;;;;;;;2.05;0.95;;;;;;;37.00;27.44;101854.59;3572694;40;20859;-82
2021/07/18 18:11:53;;;;;;;1.75;0.90;;;;;;;37.01;27.46;101855.47;3572891;40;20045;-82
2021/07/18 18:14:21;;;;;;;4.60;1.10;;;;;;;36.91;27.63;101852.16;3574065;40;20097;-82
2021/07/18 18:17:15;;;;;;;1.80;0.85;;;;;;;36.89;27.31;101855.00;3571584;40;20088;-82
2021/07/18 18:19:42;;;;;;;1.52;0.80;;;;;;;36.69;27.49;101843.72;3577434;40;20303;-82
2021/07/18 18:22:09;;;;;;;3.30;1.10;;;;;;;36.51;27.43;101821.38;3571272;40;20803;-82
2021/07/18 18:24:36;;;;;;;2.67;0.82;;;;;;;36.55;27.41;101839.91;3578216;40;20108;-83
2021/07/18 18:27:04;;;;;;;1.80;0.90;;;;;;;36.46;27.82;101845.56;3578441;40;20081;-82
2021/07/18 18:29:37;;;;;;;1.92;0.90;;;;;;;36.27;27.85;101838.63;3578906;40;20072;-83
2021/07/18 18:32:06;;;;;;;2.35;0.90;;;;;;;36.07;28.14;101840.91;3576932;40;20053;-82
2021/07/18 18:34:35;;;;;;;1.45;0.93;;;;;;;35.78;28.36;101831.41;3568025;40;20037;-82
2021/07/18 18:37:08;;;;;;;2.00;0.90;;;;;;;35.71;28.29;101846.72;3571675;40;20073;-83
2021/07/18 18:39:41;;;;;;;2.17;0.80;;;;;;;35.51;28.49;101848.97;3550609;40;20586;-82
2021/07/18 18:42:09;;;;;;;1.90;0.80;;;;;;;35.25;29.11;101848.25;3555867;40;20056;-82